createdAt,value
2023-01-18T00:01:19.664Z,1.70
2023-01-18T00:03:47.186Z,1.70
2023-01-18T00:06:14.289Z,1.80
2023-01-18T00:08:42.688Z,1.80
2023-01-18T00:11:15.698Z,1.70
2023-01-18T00:13:43.655Z,1.70
2023-01-18T00:16:21.844Z,1.70
2023-01-18T00:18:53.961Z,1.80
2023-01-18T00:21:21.210Z,1.80
2023-01-18T00:23:48.307Z,1.80
2023-01-18T00:26:15.768Z,1.80
2023-01-18T00:28:43.012Z,1.80
2023-01-18T00:31:16.194Z,1.80
2023-01-18T00:33:47.684Z,1.80
2023-01-18T00:36:16.521Z,1.80
2023-01-18T00:38:43.995Z,1.80
2023-01-18T00:41:11.082Z,1.80
2023-01-18T00:43:41.206Z,1.80
2023-01-18T00:46:17.334Z,1.80
2023-01-18T00:48:44.564Z,1.80
2023-01-18T00:51:17.304Z,1.80
2023-01-18T00:53:45.298Z,1.80
2023-01-18T00:56:15.997Z,1.80
2023-01-18T00:58:43.439Z,1.80
2023-01-18T01:01:11.639Z,1.80
2023-01-18T01:03:57.736Z,1.80
2023-01-18T01:06:44.522Z,1.70
2023-01-18T01:09:20.958Z,1.70
2023-01-18T01:12:07.914Z,1.70
2023-01-18T01:14:58.403Z,1.70
2023-01-18T01:17:44.461Z,1.80
2023-01-18T01:20:30.461Z,1.80
2023-01-18T01:23:15.981Z,1.80
2023-01-18T01:26:01.415Z,1.80
2023-01-18T01:28:28.485Z,1.80
2023-01-18T01:31:02.610Z,1.90
2023-01-18T01:33:31.629Z,1.90
2023-01-18T01:36:04.908Z,1.90
2023-01-18T01:38:32.294Z,1.90
2023-01-18T01:41:13.871Z,1.90
2023-01-18T01:43:52.301Z,2.00
2023-01-18T01:46:48.848Z,2.00
2023-01-18T01:49:40.340Z,1.90
2023-01-18T01:52:10.550Z,1.80
2023-01-18T01:54:50.428Z,1.70
2023-01-18T01:57:24.574Z,1.80
2023-01-18T01:59:59.541Z,1.90
2023-01-18T02:02:27.774Z,1.90
2023-01-18T02:04:55.578Z,1.90
2023-01-18T02:07:24.241Z,1.90
2023-01-18T02:09:52.056Z,1.90
2023-01-18T02:12:19.748Z,1.90
2023-01-18T02:14:47.701Z,1.90
2023-01-18T02:18:09.784Z,1.90
2023-01-18T02:20:56.674Z,1.90
2023-01-18T02:24:02.964Z,1.90
2023-01-18T02:30:11.200Z,1.80
2023-01-18T02:33:07.779Z,1.80
2023-01-18T02:35:52.565Z,1.80
2023-01-18T02:38:30.319Z,1.80
2023-01-18T02:41:12.810Z,1.80
2023-01-18T02:44:02.034Z,1.80
2023-01-18T02:46:36.260Z,1.80
2023-01-18T02:49:13.251Z,1.80
2023-01-18T02:51:40.392Z,1.80
2023-01-18T02:54:09.772Z,1.80
2023-01-18T02:56:44.265Z,1.80
2023-01-18T02:59:46.065Z,1.80
2023-01-18T03:02:19.549Z,1.60
2023-01-18T03:04:55.751Z,1.50
2023-01-18T03:07:39.989Z,1.50
2023-01-18T03:10:10.274Z,1.60
2023-01-18T03:13:10.253Z,1.70
2023-01-18T03:15:51.856Z,1.70
2023-01-18T03:18:34.548Z,1.80
2023-01-18T03:21:05.664Z,1.70
2023-01-18T03:23:40.110Z,1.70
2023-01-18T03:26:14.703Z,1.60
2023-01-18T03:29:03.557Z,1.50
2023-01-18T03:32:35.720Z,1.40
2023-01-18T03:35:10.721Z,1.40
2023-01-18T03:37:41.299Z,1.40
2023-01-18T03:40:18.376Z,1.50
2023-01-18T03:42:52.863Z,1.50
2023-01-18T03:45:42.938Z,1.50
2023-01-18T03:48:10.919Z,1.50
2023-01-18T03:51:02.782Z,1.60
2023-01-18T03:54:00.864Z,1.70
2023-01-18T03:56:42.427Z,1.70
2023-01-18T03:59:10.035Z,1.70
2023-01-18T04:01:37.744Z,1.80
2023-01-18T04:04:04.938Z,1.80
2023-01-18T04:06:33.275Z,1.90
2023-01-18T04:09:00.441Z,1.80
2023-01-18T04:11:27.545Z,1.80
2023-01-18T04:13:54.758Z,1.80
2023-01-18T04:16:22.006Z,1.80
2023-01-18T04:18:49.122Z,1.80
2023-01-18T04:21:16.172Z,1.60
2023-01-18T04:23:43.468Z,1.60
2023-01-18T04:26:11.961Z,1.60
2023-01-18T04:28:39.071Z,1.70
2023-01-18T04:31:06.169Z,1.80
2023-01-18T04:33:33.302Z,1.80
2023-01-18T04:36:00.406Z,1.80
2023-01-18T04:38:28.340Z,1.80
2023-01-18T04:40:55.371Z,1.80
2023-01-18T04:43:22.492Z,1.80
2023-01-18T04:45:55.939Z,1.80
2023-01-18T04:48:24.045Z,1.90
2023-01-18T04:50:52.118Z,1.80
2023-01-18T04:53:19.605Z,1.90
2023-01-18T04:55:46.834Z,1.80
2023-01-18T04:58:15.159Z,1.80
2023-01-18T05:00:42.429Z,1.80
2023-01-18T05:03:13.286Z,1.80
2023-01-18T05:05:40.938Z,1.80
2023-01-18T05:08:08.318Z,1.70
2023-01-18T05:10:35.449Z,1.80
2023-01-18T05:13:02.590Z,1.80
2023-01-18T05:15:29.650Z,1.80
2023-01-18T05:17:56.747Z,1.80
2023-01-18T05:20:23.822Z,1.80
2023-01-18T05:22:50.931Z,1.80
2023-01-18T05:25:18.012Z,1.70
2023-01-18T05:27:45.091Z,1.80
2023-01-18T05:30:12.599Z,1.80
2023-01-18T05:32:39.700Z,1.80
2023-01-18T05:35:07.562Z,1.80
2023-01-18T05:37:34.653Z,1.70
2023-01-18T05:40:01.745Z,1.70
2023-01-18T05:42:28.827Z,1.70
2023-01-18T05:44:55.843Z,1.80
2023-01-18T05:47:22.932Z,1.80
2023-01-18T05:49:50.006Z,1.80
2023-01-18T05:52:17.883Z,1.90
2023-01-18T05:54:44.968Z,1.80
2023-01-18T05:57:12.120Z,1.80
2023-01-18T05:59:39.167Z,1.80
2023-01-18T06:02:06.400Z,1.80
2023-01-18T06:04:33.467Z,1.80
2023-01-18T06:07:00.606Z,1.80
2023-01-18T06:09:30.038Z,1.80
2023-01-18T06:11:57.559Z,1.70
2023-01-18T06:14:24.647Z,1.60
2023-01-18T06:16:51.757Z,1.70
2023-01-18T06:19:18.849Z,1.60
2023-01-18T06:21:45.970Z,1.70
2023-01-18T06:24:13.724Z,1.70
2023-01-18T06:26:40.982Z,1.70
2023-01-18T06:29:08.150Z,1.60
2023-01-18T06:31:35.357Z,1.70
2023-01-18T06:34:09.270Z,1.70
2023-01-18T06:36:40.113Z,1.70
2023-01-18T06:39:07.667Z,1.70
2023-01-18T06:41:34.770Z,1.70
2023-01-18T06:44:01.837Z,1.70
2023-01-18T06:46:29.158Z,1.70
2023-01-18T06:48:56.571Z,1.60
2023-01-18T06:51:25.245Z,1.70
2023-01-18T06:53:52.404Z,1.70
2023-01-18T06:56:19.540Z,1.70
2023-01-18T06:58:46.745Z,1.60
2023-01-18T07:01:13.965Z,1.60
2023-01-18T07:03:41.170Z,1.70
2023-01-18T07:06:08.512Z,1.60
2023-01-18T07:08:35.826Z,1.60
2023-01-18T07:11:07.754Z,1.70
2023-01-18T07:13:36.230Z,1.70
2023-01-18T07:16:03.440Z,1.80
2023-01-18T07:18:30.849Z,1.70
2023-01-18T07:20:59.516Z,1.90
2023-01-18T07:23:27.287Z,1.90
2023-01-18T07:26:05.426Z,2.00
2023-01-18T07:28:34.253Z,2.00
2023-01-18T07:31:01.604Z,2.00
2023-01-18T07:33:30.032Z,2.00
2023-01-18T07:35:58.474Z,2.00
2023-01-18T07:38:26.019Z,1.90
2023-01-18T07:41:02.444Z,1.80
2023-01-18T07:43:30.781Z,1.90
2023-01-18T07:46:00.582Z,2.10
2023-01-18T07:48:28.630Z,2.00
2023-01-18T07:51:00.760Z,1.80
2023-01-18T07:53:29.697Z,1.80
2023-01-18T07:56:01.647Z,2.00
2023-01-18T07:58:29.791Z,2.00
2023-01-18T08:01:06.488Z,2.10
2023-01-18T08:03:34.487Z,2.10
2023-01-18T08:06:03.163Z,2.00
2023-01-18T08:08:30.462Z,1.90
2023-01-18T08:10:59.529Z,1.90
2023-01-18T08:13:27.385Z,2.00
2023-01-18T08:15:55.789Z,2.10
2023-01-18T08:18:23.830Z,2.10
2023-01-18T08:20:51.672Z,2.20
2023-01-18T08:23:19.864Z,2.30
2023-01-18T08:25:47.719Z,2.30
2023-01-18T08:28:15.204Z,2.20
2023-01-18T08:30:45.870Z,2.20
2023-01-18T08:33:13.183Z,2.40
2023-01-18T08:35:47.926Z,2.40
2023-01-18T08:38:16.001Z,2.40
2023-01-18T08:40:43.410Z,2.40
2023-01-18T08:43:11.867Z,2.40
2023-01-18T08:45:39.145Z,2.30
2023-01-18T08:48:08.340Z,2.30
2023-01-18T08:50:36.249Z,2.20
2023-01-18T08:53:04.375Z,2.40
2023-01-18T08:55:31.885Z,2.50
2023-01-18T08:57:59.347Z,2.60
2023-01-18T09:00:30.382Z,2.80
2023-01-18T09:02:59.058Z,2.80
2023-01-18T09:05:27.232Z,2.90
2023-01-18T09:07:55.354Z,2.80
2023-01-18T09:10:23.300Z,2.60
2023-01-18T09:12:52.921Z,2.70
2023-01-18T09:15:21.435Z,2.80
2023-01-18T09:17:48.472Z,2.60
2023-01-18T09:20:18.657Z,2.50
2023-01-18T09:22:48.056Z,2.50
2023-01-18T09:25:18.191Z,2.50
2023-01-18T09:27:46.748Z,2.50
2023-01-18T09:30:16.213Z,2.50
2023-01-18T09:32:43.400Z,2.50
2023-01-18T09:35:10.865Z,2.40
2023-01-18T09:37:38.001Z,2.40
2023-01-18T09:40:05.871Z,2.50
2023-01-18T09:42:41.223Z,2.70
2023-01-18T09:45:26.193Z,2.70
2023-01-18T09:48:04.066Z,2.80
2023-01-18T09:50:42.010Z,2.90
2023-01-18T09:53:46.203Z,3.10
2023-01-18T09:56:24.232Z,2.90
2023-01-18T09:59:13.973Z,2.90
2023-01-18T10:01:41.904Z,2.90
2023-01-18T10:04:23.999Z,3.00
2023-01-18T10:07:03.911Z,3.00
2023-01-18T10:09:42.131Z,2.90
2023-01-18T10:12:20.519Z,3.00
2023-01-18T10:15:17.446Z,3.00
2023-01-18T10:17:46.243Z,2.90
2023-01-18T10:20:41.811Z,2.60
2023-01-18T10:23:25.877Z,2.60
2023-01-18T10:26:01.725Z,2.70
2023-01-18T10:28:59.175Z,2.80
2023-01-18T10:31:57.363Z,2.60
2023-01-18T10:34:29.944Z,2.60
2023-01-18T10:37:14.912Z,2.60
2023-01-18T10:39:52.167Z,2.60
2023-01-18T10:42:49.933Z,2.70
2023-01-18T10:45:26.509Z,2.60
2023-01-18T10:47:56.247Z,2.70
2023-01-18T10:50:53.260Z,2.90
2023-01-18T10:53:32.401Z,2.90
2023-01-18T10:56:21.023Z,2.70
2023-01-18T10:59:21.427Z,2.50
2023-01-18T11:01:57.255Z,2.60
2023-01-18T11:04:30.791Z,2.30
2023-01-18T11:07:02.897Z,2.50
2023-01-18T11:10:09.677Z,2.60
2023-01-18T11:12:47.949Z,2.30
2023-01-18T11:15:27.216Z,2.60
2023-01-18T11:18:13.268Z,2.60
2023-01-18T11:20:50.834Z,2.50
2023-01-18T11:23:29.721Z,2.40
2023-01-18T11:26:05.293Z,2.40
2023-01-18T11:28:40.437Z,2.50
2023-01-18T11:31:16.109Z,2.90
2023-01-18T11:34:04.865Z,3.10
2023-01-18T11:36:41.101Z,2.80
2023-01-18T11:39:35.843Z,2.80
2023-01-18T11:42:27.378Z,2.90
2023-01-18T11:45:05.343Z,2.60
2023-01-18T11:48:07.783Z,2.80
2023-01-18T11:51:01.044Z,3.20
2023-01-18T11:54:06.961Z,3.50
2023-01-18T11:56:50.850Z,3.20
2023-01-18T11:59:36.716Z,3.30
2023-01-18T12:02:46.170Z,3.30
2023-01-18T12:05:40.438Z,3.30
2023-01-18T12:08:47.562Z,3.20
2023-01-18T12:11:38.858Z,3.30
2023-01-18T12:15:00.334Z,3.40
2023-01-18T12:18:13.948Z,3.50
2023-01-18T12:21:10.651Z,3.50
2023-01-18T12:24:28.439Z,3.40
2023-01-18T12:27:22.033Z,3.20
2023-01-18T12:30:46.025Z,3.40
2023-01-18T12:33:47.532Z,3.40
2023-01-18T12:36:42.664Z,3.50
2023-01-18T12:39:49.520Z,3.50
2023-01-18T12:48:54.748Z,3.60
2023-01-18T12:51:24.625Z,3.70
2023-01-18T12:53:58.809Z,3.70
2023-01-18T12:56:42.320Z,3.50
2023-01-18T12:59:19.690Z,3.50
2023-01-18T13:01:54.143Z,3.70
2023-01-18T13:04:26.495Z,3.70
2023-01-18T13:06:58.478Z,4.20
2023-01-18T13:09:34.269Z,4.30
2023-01-18T13:12:03.881Z,4.70
2023-01-18T13:14:54.073Z,4.20
2023-01-18T13:17:33.031Z,3.90
2023-01-18T13:20:12.610Z,3.70
2023-01-18T13:23:26.373Z,3.40
2023-01-18T13:26:25.984Z,3.30
2023-01-18T13:29:29.988Z,3.70
2023-01-18T13:31:58.148Z,3.80
2023-01-18T13:34:39.991Z,3.60
2023-01-18T13:37:47.841Z,3.60
2023-01-18T13:40:52.078Z,3.70
2023-01-18T13:44:11.689Z,3.60
2023-01-18T13:46:39.665Z,3.40
2023-01-18T13:49:38.268Z,3.40
2023-01-18T13:52:35.953Z,3.60
2023-01-18T13:55:23.543Z,4.20
2023-01-18T13:57:55.908Z,4.60
2023-01-18T14:00:24.736Z,4.00
2023-01-18T14:02:56.821Z,4.20
2023-01-18T14:05:28.877Z,4.20
2023-01-18T14:08:01.852Z,4.10
2023-01-18T14:10:46.997Z,3.80
2023-01-18T14:13:18.009Z,3.90
2023-01-18T14:16:03.230Z,3.80
2023-01-18T14:18:31.175Z,3.30
2023-01-18T14:21:37.735Z,3.30
2023-01-18T14:24:46.064Z,3.50
2023-01-18T14:27:20.521Z,3.30
2023-01-18T14:30:10.104Z,3.10
2023-01-18T14:32:45.700Z,3.00
2023-01-18T14:35:23.949Z,3.00
2023-01-18T14:37:53.243Z,3.00
2023-01-18T14:40:28.936Z,3.00
2023-01-18T14:43:01.797Z,3.10
2023-01-18T14:45:35.505Z,3.10
2023-01-18T14:48:12.826Z,2.90
2023-01-18T14:50:48.461Z,2.90
2023-01-18T14:53:29.107Z,3.00
2023-01-18T14:56:21.967Z,2.90
2023-01-18T14:59:00.599Z,2.90
2023-01-18T15:01:37.217Z,2.80
2023-01-18T15:04:17.149Z,2.90
2023-01-18T15:07:02.007Z,2.80
2023-01-18T15:09:32.861Z,2.80
2023-01-18T15:12:02.242Z,2.60
2023-01-18T15:14:33.219Z,2.50
2023-01-18T15:17:02.048Z,2.50
2023-01-18T15:19:41.272Z,2.60
2023-01-18T15:22:13.757Z,2.70
2023-01-18T15:24:43.020Z,2.60
2023-01-18T15:27:20.617Z,2.50
2023-01-18T15:29:50.822Z,2.50
2023-01-18T15:32:21.568Z,2.40
2023-01-18T15:34:50.993Z,2.50
2023-01-18T15:37:33.713Z,2.40
2023-01-18T15:40:35.909Z,2.30
2023-01-18T15:43:09.638Z,2.30
2023-01-18T15:45:39.607Z,2.30
2023-01-18T15:48:18.667Z,2.20
2023-01-18T15:50:52.513Z,2.10
2023-01-18T15:53:32.082Z,2.00
2023-01-18T15:56:03.502Z,2.00
2023-01-18T15:58:50.269Z,2.10
2023-01-18T16:01:20.785Z,2.00
2023-01-18T16:04:34.048Z,2.00
2023-01-18T16:07:42.106Z,1.90
2023-01-18T16:10:30.616Z,1.80
2023-01-18T16:13:42.902Z,1.90
2023-01-18T16:16:28.835Z,1.80
2023-01-18T16:19:23.329Z,1.80
2023-01-18T16:22:00.118Z,1.80
2023-01-18T16:24:32.080Z,1.80
2023-01-18T16:27:11.125Z,1.70
2023-01-18T16:29:44.783Z,1.70
2023-01-18T16:32:39.081Z,1.60
2023-01-18T16:35:31.121Z,1.50
2023-01-18T16:37:58.623Z,1.50
2023-01-18T16:40:25.951Z,1.40
2023-01-18T16:43:34.076Z,1.50
2023-01-18T16:46:03.042Z,1.50
2023-01-18T16:48:31.156Z,1.40
2023-01-18T16:51:01.322Z,1.40
2023-01-18T16:53:29.132Z,1.40
2023-01-18T16:55:56.766Z,1.30
2023-01-18T16:58:24.280Z,1.40
2023-01-18T17:00:58.835Z,1.30
2023-01-18T17:03:26.373Z,1.30
2023-01-18T17:05:53.872Z,1.30
2023-01-18T17:08:21.148Z,1.30
2023-01-18T17:10:49.678Z,1.40
2023-01-18T17:13:17.387Z,1.40
2023-01-18T17:15:45.621Z,1.40
2023-01-18T17:18:18.475Z,1.30
2023-01-18T17:20:45.693Z,1.40
2023-01-18T17:23:12.733Z,1.30
2023-01-18T17:25:40.558Z,1.30
2023-01-18T17:28:08.702Z,1.30
2023-01-18T17:30:37.340Z,1.30
2023-01-18T17:33:04.600Z,1.30
2023-01-18T17:35:32.633Z,1.30
2023-01-18T17:38:06.548Z,1.40
2023-01-18T17:40:41.736Z,1.40
2023-01-18T17:43:22.148Z,1.50
2023-01-18T17:46:00.745Z,1.40
2023-01-18T17:48:28.920Z,1.50
2023-01-18T17:50:56.168Z,1.50
2023-01-18T17:53:23.299Z,1.40
2023-01-18T17:55:50.578Z,1.40
2023-01-18T17:58:17.906Z,1.40
2023-01-18T18:00:45.403Z,1.40
2023-01-18T18:03:13.326Z,1.50
2023-01-18T18:05:40.765Z,1.50
2023-01-18T18:08:09.075Z,1.50
2023-01-18T18:10:36.234Z,1.50
2023-01-18T18:13:03.821Z,1.50
2023-01-18T18:15:31.230Z,1.60
2023-01-18T18:17:58.576Z,1.60
2023-01-18T18:20:25.841Z,1.60
2023-01-18T18:22:52.902Z,1.70
2023-01-18T18:25:19.988Z,1.70
2023-01-18T18:27:47.595Z,1.60
2023-01-18T18:30:15.860Z,1.70
2023-01-18T18:32:42.932Z,1.60
2023-01-18T18:35:26.567Z,1.60
2023-01-18T18:37:54.568Z,1.60
2023-01-18T18:40:22.176Z,1.50
2023-01-18T18:43:01.342Z,1.70
2023-01-18T18:45:31.620Z,1.70
2023-01-18T18:47:59.148Z,1.70
2023-01-18T18:50:26.335Z,1.70
2023-01-18T18:52:53.858Z,1.60
2023-01-18T18:55:21.129Z,1.70
2023-01-18T18:57:48.350Z,1.70
2023-01-18T19:00:16.158Z,1.70
2023-01-18T19:02:43.412Z,1.70
2023-01-18T19:05:13.357Z,1.70
2023-01-18T19:07:42.490Z,1.60
2023-01-18T19:10:11.644Z,1.60
2023-01-18T19:12:38.749Z,1.60
2023-01-18T19:15:06.439Z,1.60
2023-01-18T19:17:33.502Z,1.50
2023-01-18T19:20:00.593Z,1.50
2023-01-18T19:22:27.651Z,1.50
2023-01-18T19:24:54.966Z,1.50
2023-01-18T19:27:24.626Z,1.50
2023-01-18T19:29:53.491Z,1.50
2023-01-18T19:32:20.871Z,1.40
2023-01-18T19:34:47.986Z,1.50
2023-01-18T19:37:15.106Z,1.40
2023-01-18T19:39:42.215Z,1.30
2023-01-18T19:42:09.301Z,1.30
2023-01-18T19:44:41.110Z,1.40
2023-01-18T19:47:08.467Z,1.30
2023-01-18T19:49:35.497Z,1.40
2023-01-18T19:52:02.674Z,1.30
2023-01-18T19:54:29.720Z,1.30
2023-01-18T19:56:56.785Z,1.20
2023-01-18T19:59:23.944Z,1.20
2023-01-18T20:01:52.394Z,1.20
2023-01-18T20:04:19.710Z,1.10
2023-01-18T20:06:46.983Z,1.10
2023-01-18T20:09:27.000Z,1.10
2023-01-18T20:11:56.743Z,1.00
2023-01-18T20:14:30.647Z,0.90
2023-01-18T20:17:00.725Z,0.90
2023-01-18T20:19:27.878Z,1.00
2023-01-18T20:21:54.982Z,0.90
2023-01-18T20:24:22.037Z,0.90
2023-01-18T20:26:49.137Z,0.90
2023-01-18T20:29:16.240Z,1.00
2023-01-18T20:31:49.708Z,1.00
2023-01-18T20:34:17.447Z,1.00
2023-01-18T20:36:46.111Z,1.00
2023-01-18T20:39:13.474Z,0.90
2023-01-18T20:41:40.937Z,0.70
2023-01-18T20:44:08.307Z,0.70
2023-01-18T20:46:35.647Z,0.70
2023-01-18T20:49:03.723Z,0.70
2023-01-18T20:51:34.024Z,0.80
2023-01-18T20:54:02.276Z,0.70
2023-01-18T20:56:30.700Z,0.70
2023-01-18T20:58:58.476Z,0.60
2023-01-18T21:01:32.255Z,0.50
2023-01-18T21:04:01.964Z,0.50
2023-01-18T21:06:29.743Z,0.50
2023-01-18T21:08:58.478Z,0.50
2023-01-18T21:11:26.999Z,0.50
2023-01-18T21:13:55.323Z,0.40
2023-01-18T21:16:23.580Z,0.40
2023-01-18T21:18:52.841Z,0.50
2023-01-18T21:21:20.958Z,0.40
2023-01-18T21:23:48.368Z,0.40
2023-01-18T21:26:15.522Z,0.40
2023-01-18T21:28:42.690Z,0.40
2023-01-18T21:31:10.025Z,0.40
2023-01-18T21:33:37.624Z,0.40
2023-01-18T21:36:11.413Z,0.40
2023-01-18T21:38:38.673Z,0.40
2023-01-18T21:41:38.535Z,0.40
2023-01-18T21:44:24.731Z,0.40
2023-01-18T21:46:52.803Z,0.40
2023-01-18T21:50:04.008Z,0.30
2023-01-18T21:52:47.809Z,0.30
2023-01-18T21:55:15.880Z,0.30
2023-01-18T21:57:43.007Z,0.20
2023-01-18T22:00:11.262Z,0.20
2023-01-18T22:02:38.751Z,0.20
2023-01-18T22:05:08.638Z,0.20
2023-01-18T22:07:36.121Z,0.20
2023-01-18T22:10:08.624Z,0.30
2023-01-18T22:12:36.501Z,0.30
2023-01-18T22:15:07.152Z,0.20
2023-01-18T22:17:34.272Z,0.20
2023-01-18T22:20:02.142Z,0.20
2023-01-18T22:22:29.419Z,0.20
2023-01-18T22:24:57.159Z,0.10
2023-01-18T22:27:24.352Z,0.20
2023-01-18T22:29:51.409Z,0.30
2023-01-18T22:32:18.561Z,0.30
2023-01-18T22:34:45.612Z,0.30
2023-01-18T22:37:12.759Z,0.30
2023-01-18T22:39:39.995Z,0.30
2023-01-18T22:42:07.178Z,0.30
2023-01-18T22:44:34.246Z,0.20
2023-01-18T22:47:01.354Z,0.20
2023-01-18T22:49:28.450Z,0.20
2023-01-18T22:51:55.560Z,0.30
2023-01-18T22:54:23.079Z,0.30
2023-01-18T22:56:50.395Z,0.30
2023-01-18T22:59:17.501Z,0.30
2023-01-18T23:01:44.907Z,0.20
2023-01-18T23:04:12.233Z,0.20
2023-01-18T23:06:46.974Z,0.20
2023-01-18T23:09:16.418Z,0.20
2023-01-18T23:11:44.852Z,0.20
2023-01-18T23:14:30.594Z,0.30
2023-01-18T23:17:16.240Z,0.20
2023-01-18T23:19:43.307Z,0.20
2023-01-18T23:22:11.305Z,0.30
2023-01-18T23:24:39.324Z,0.20
2023-01-18T23:27:07.803Z,0.30
2023-01-18T23:29:35.150Z,0.20
2023-01-18T23:32:02.314Z,0.20
2023-01-18T23:34:29.414Z,0.20
2023-01-18T23:36:56.384Z,0.30
2023-01-18T23:39:42.117Z,0.40
2023-01-18T23:42:27.614Z,0.50
2023-01-18T23:45:13.064Z,0.40
2023-01-18T23:47:58.874Z,0.40
2023-01-18T23:50:44.658Z,0.40
2023-01-18T23:53:31.849Z,0.30
2023-01-18T23:55:59.705Z,0.30
2023-01-18T23:58:27.095Z,0.20
